• Join FlightAware (Why Join?)
  • Login
  • US Flag 
Trick or treat! (Boo!!) 
04:24AM EDT


 

Airport Tracker/Info


-or-


 

Live Flight TrackerFlight Track Log ✈ N960DL ✈ 21-Apr-2013 ✈ KATL - KDFW

Flight Track Log - Related Links

Times and Time Zones

All times are in EDT time to prevent confusion due to time zone crossing. See the N960DL flight status page for this flight to view local times or setup timezone preferences in your user account.

Time Position Orientation Groundspeed Altitude Reporting Facility
EDT Latitude Longitude Course Direction KTS MPH feet Rate Location/Type
07:07PM 33.6478 -84.3733 234° Southwest 441 507 2,400  Level Atlanta Center
07:08PM 33.6500 -84.3500 83° East 214 246 3,200 2,460 Climbing Atlanta TRACON
07:09PM 33.7000 -84.2833 48° Northeast 266 306 5,800 2,700 Climbing Atlanta TRACON
07:10PM 33.8001 -84.4521 270° West  Level FlightAware Approximate
07:10PM 33.7667 -84.2833 360° North 278 320 8,700  Level Atlanta TRACON
07:11PM 33.7954 -84.5759 239° Southwest  Level FlightAware Approximate
07:11PM 33.8103 -84.4139 292° West 273 314 11,400  Level Atlanta Center
07:12PM 33.7353 -84.6782 234° Southwest  Level FlightAware Approximate
07:12PM 33.8122 -84.5189 271° West 307 353 13,300  Level Atlanta Center
07:13PM 33.6733 -84.7789 234° Southwest  Level FlightAware Approximate
07:13PM 33.7781 -84.6411 251° West 339 390 16,300  Level Atlanta Center
07:14PM 33.7131 -84.7356 230° Southwest 349 402 18,100 1,920 Climbing Atlanta Center
07:15PM 33.6519 -84.8375 234° Southwest 373 429 20,200 1,920 Climbing Atlanta Center
07:16PM 33.6072 -84.9567 246° West 387 445 22,000 1,860 Climbing Atlanta Center
07:17PM 33.5644 -85.0783 247° West 393 452 24,000 1,860 Climbing Atlanta Center
07:18PM 33.5217 -85.1950 246° West 393 452 25,800 1,800 Climbing Atlanta Center
07:19PM 33.4953 -85.3217 256° West 393 452 27,600 1,860 Climbing Atlanta Center
07:20PM 33.4647 -85.4408 253° West 385 443 29,600 1,440 Climbing Atlanta Center
07:21PM 33.4322 -85.5547 251° West 367 422 30,500 960 Climbing Atlanta Center
07:22PM 33.3953 -85.6711 249° West 367 422 31,600 840 Climbing Atlanta Center
07:23PM 33.3603 -85.7872 250° West 367 422 32,200 720 Climbing Atlanta Center
07:24PM 33.3297 -85.8836 249° West 367 422 33,100 660 Climbing Atlanta Center
07:25PM 33.2944 -85.9972 250° West 367 422 33,600 420 Climbing Atlanta Center
07:26PM 33.2594 -86.1008 248° West 361 415 34,000 180 Climbing Atlanta Center
07:27PM 33.2239 -86.2242 251° West 383 441 34,000  Level Atlanta Center
07:28PM 33.1883 -86.3397 250° West 383 441 34,000  Level Atlanta Center
07:29PM 33.1528 -86.4531 249° West 377 434 34,000  Level Atlanta Center
07:30PM 33.1128 -86.5783 249° West 383 441 34,000  Level Atlanta Center
07:31PM 33.0725 -86.6986 248° West 383 441 34,000  Level Atlanta Center
07:32PM 33.0367 -86.8164 250° West 389 448 34,000  Level Atlanta Center
07:33PM 32.9983 -86.9317 248° West 384 442 34,000  Level Atlanta Center
07:34PM 32.9625 -87.0444 249° West 379 436 34,000  Level Atlanta Center
07:35PM 32.9239 -87.1644 249° West 379 436 34,000  Level Atlanta Center
07:37PM 32.8475 -87.3925 248° West 377 434 34,000  Level Memphis Center
07:38PM 32.8103 -87.5072 249° West 377 434 34,000  Level Memphis Center
07:39PM 32.7714 -87.6247 249° West 377 434 34,000  Level Memphis Center
07:40PM 32.7342 -87.7394 249° West 377 434 34,000  Level Memphis Center
07:41PM 32.6928 -87.8692 249° West 383 441 34,000  Level Memphis Center
07:42PM 32.6575 -87.9836 250° West 378 435 34,000  Level Memphis Center
07:43PM 32.6158 -88.0981 247° West 373 429 34,000  Level Memphis Center
07:44PM 32.5822 -88.2100 250° West 373 429 34,000  Level Memphis Center
07:45PM 32.5444 -88.3192 248° West 373 429 34,000  Level Memphis Center
07:46PM 32.5047 -88.4333 248° West 373 429 34,000  Level Memphis Center
07:47PM 32.4647 -88.5500 248° West 373 429 34,000  Level Memphis Center
07:48PM 32.4267 -88.6639 248° West 373 429 34,000  Level Memphis Center
07:49PM 32.3883 -88.7731 247° West 373 429 34,000  Level Memphis Center
07:50PM 32.3833 -88.8886 267° West 357 411 34,000  Level Memphis Center
07:51PM 32.3953 -89.0092 277° West 362 417 34,000  Level Memphis Center
07:52PM 32.4089 -89.1244 278° West 362 417 34,000  Level Memphis Center
07:53PM 32.4183 -89.2400 276° West 362 417 34,000  Level Memphis Center
07:54PM 32.4300 -89.3556 277° West 367 422 34,000  Level Memphis Center
07:55PM 32.4411 -89.4736 276° West 367 422 34,000  Level Memphis Center
07:56PM 32.4503 -89.5892 275° West 361 415 34,000  Level Memphis Center
07:57PM 32.4636 -89.7022 278° West 361 415 34,000  Level Memphis Center
07:58PM 32.4725 -89.8181 275° West 361 415 34,000  Level Memphis Center
07:59PM 32.4833 -89.9336 276° West 361 415 34,000  Level Memphis Center
08:00PM 32.4961 -90.0494 277° West 361 415 34,000  Level Memphis Center
08:01PM 32.5047 -90.1653 275° West 361 415 34,000  Level Memphis Center
08:02PM 32.5069 -90.2808 271° West 361 415 34,000  Level Memphis Center
08:03PM 32.5092 -90.3967 271° West 361 415 34,000  Level Memphis Center
08:04PM 32.5089 -90.5125 270° West 361 415 34,000  Level Memphis Center
08:05PM 32.5089 -90.6258 270° West 356 410 34,000  Level Memphis Center
08:06PM 32.5106 -90.7417 271° West 356 410 34,000  Level Memphis Center
08:07PM 32.5122 -90.8600 271° West 356 410 34,000  Level Memphis Center
08:08PM 32.5139 -90.9756 271° West 356 410 34,000  Level Memphis Center
08:09PM 32.5153 -91.0914 271° West 356 410 34,000  Level Memphis Center
08:12PM 32.5181 -91.3508 271° West 349 402 34,000  Level Fort Worth Center
08:13PM 32.5197 -91.4689 271° West 349 402 34,000  Level Fort Worth Center
08:14PM 32.5197 -91.6019 270° West 355 409 34,000  Level Fort Worth Center
08:15PM 32.5208 -91.7178 271° West 360 414 34,000  Level Fort Worth Center
08:16PM 32.5197 -91.8336 269° West 360 414 34,000  Level Fort Worth Center
08:17PM 32.5208 -91.9517 271° West 360 414 34,000  Level Fort Worth Center
08:18PM 32.5194 -92.0700 269° West 365 420 34,000  Level Fort Worth Center
08:19PM 32.5139 -92.1836 267° West 365 420 34,000  Level Fort Worth Center
08:20PM 32.5042 -92.3022 264° West 365 420 34,000  Level Fort Worth Center
08:21PM 32.4942 -92.4186 264° West 365 420 34,000  Level Fort Worth Center
08:22PM 32.4903 -92.5297 268° West 365 420 34,000  Level Fort Worth Center
08:23PM 32.4781 -92.6461 263° West 360 414 34,000  Level Fort Worth Center
08:24PM 32.4700 -92.7647 265° West 360 414 34,000  Level Fort Worth Center
08:25PM 32.4594 -92.8808 264° West 360 414 34,000  Level Fort Worth Center
08:26PM 32.4492 -92.9969 264° West 360 414 34,000  Level Fort Worth Center
08:27PM 32.4406 -93.1156 265° West 360 414 34,000  Level Fort Worth Center
08:28PM 32.4322 -93.2342 265° West 366 421 34,000  Level Fort Worth Center
08:29PM 32.4214 -93.3553 264° West 371 427 34,000  Level Fort Worth Center
08:30PM 32.4108 -93.4764 264° West 371 427 34,000  Level Fort Worth Center
08:31PM 32.4039 -93.5922 266° West 371 427 34,000  Level Fort Worth Center
08:32PM 32.4114 -93.7100 274° West 371 427 34,000  Level Fort Worth Center
08:33PM 32.4394 -93.8122 288° West 357 411 34,000  Level Fort Worth Center
08:34PM 32.4572 -93.9247 281° West 357 411 34,100  Climbing Fort Worth Center
08:35PM 32.4458 -94.0433 264° West 357 411 34,000 -60 Descending Fort Worth Center
08:36PM 32.4408 -94.1667 267° West 367 422 34,000  Level Fort Worth Center
08:37PM 32.4356 -94.2825 267° West 367 422 34,000  Level Fort Worth Center
08:38PM 32.4300 -94.4008 267° West 367 422 34,000  Level Fort Worth Center
08:39PM 32.4244 -94.5217 267° West 367 422 34,000  Level Fort Worth Center
08:40PM 32.4208 -94.6422 268° West 367 422 34,000  Level Fort Worth Center
08:41PM 32.4131 -94.7581 265° West 367 422 34,000 -960 Level Fort Worth Center
08:42PM 32.3967 -94.8792 261° West 373 429 32,100 -1,740 Descending Fort Worth Center
08:43PM 32.3886 -95.0050 266° West 378 435 30,600 -1,380 Descending Fort Worth Center
08:44PM 32.3869 -95.1303 269° West 384 442 29,400 -1,440 Descending Fort Worth Center
08:45PM 32.3850 -95.2681 269° West 384 442 27,800 -1,860 Descending Fort Worth Center
08:46PM 32.3831 -95.3986 269° West 390 449 25,700 -1,380 Descending Fort Worth Center
08:47PM 32.3853 -95.5339 271° West 403 464 25,100 -660 Descending Fort Worth Center
08:48PM 32.3869 -95.6642 271° West 403 464 24,400 -600 Descending Fort Worth Center
08:49PM 32.3889 -95.7969 271° West 403 464 24,000 -600 Descending Fort Worth Center
08:50PM 32.3858 -95.9028 268° West 403 464 23,300 -1,500 Descending Fort Worth Center
08:51PM 32.3878 -96.0553 271° West 403 464 21,000 -2,100 Descending Fort Worth Center
08:52PM 32.3867 -96.1711 269° West 398 458 19,200 -1,980 Descending Fort Worth Center
08:53PM 32.3861 -96.3089 270° West 398 458 17,100 -2,460 Descending Fort Worth Center
08:54PM 32.3869 -96.4144 271° West 375 432 14,300 -3,000 Descending Fort Worth Center
08:55PM 32.4397 -96.5172 301° West 333 383 11,100 -1,680 Descending Fort Worth Center
08:56PM 32.4986 -96.5883 314° West 328 377 11,000 -60 Descending Fort Worth Center
08:57PM 32.5597 -96.6642 314° West 309 356 11,000  Level Fort Worth Center
08:58PM 32.6122 -96.7253 316° Northwest 297 342 11,000  Level Fort Worth Center
08:59PM 32.6711 -96.7989 314° West 287 330 11,000 -60 Level Fort Worth Center
09:00PM 32.7214 -96.8553 317° Northwest 287 330 10,900 -240 Descending Fort Worth Center
09:01PM 32.7833 -96.9000 329° Northwest 251 289 10,600 -960 Descending Dallas / Fort Worth TRACON
09:02PM 32.8500 -96.9000 360° North 240 276 9,000 -1,920 Descending Dallas / Fort Worth TRACON
09:03PM 32.9167 -96.9000 360° North 243 280 6,800 -1,860 Descending Dallas / Fort Worth TRACON
09:04PM 33.0000 -96.9000 360° North 242 278 5,100 -1,200 Descending Dallas / Fort Worth TRACON
09:05PM 33.0667 -96.9167 348° North 241 277 4,500 -600 Descending Dallas / Fort Worth TRACON